sensor_id;sensor_type;location;lat;lon;timestamp;P1;durP1;ratioP1;P2;durP2;ratioP2
19828;SDS011;10075;50.924;4.396;2023-04-25T00:02:00;17.67;;;5.43;;
19828;SDS011;10075;50.924;4.396;2023-04-25T00:04:28;19.43;;;5.17;;
19828;SDS011;10075;50.924;4.396;2023-04-25T00:06:59;20.00;;;4.50;;
19828;SDS011;10075;50.924;4.396;2023-04-25T00:09:27;15.27;;;4.90;;
19828;SDS011;10075;50.924;4.396;2023-04-25T00:11:54;15.90;;;5.03;;
19828;SDS011;10075;50.924;4.396;2023-04-25T00:14:21;17.40;;;4.77;;
19828;SDS011;10075;50.924;4.396;2023-04-25T00:16:49;17.87;;;5.40;;
19828;SDS011;10075;50.924;4.396;2023-04-25T00:19:16;13.23;;;4.57;;
19828;SDS011;10075;50.924;4.396;2023-04-25T00:21:43;18.60;;;5.87;;
19828;SDS011;10075;50.924;4.396;2023-04-25T00:24:12;12.40;;;4.80;;
19828;SDS011;10075;50.924;4.396;2023-04-25T00:26:39;17.23;;;4.80;;
19828;SDS011;10075;50.924;4.396;2023-04-25T00:29:06;18.70;;;4.60;;
19828;SDS011;10075;50.924;4.396;2023-04-25T00:31:33;16.70;;;5.00;;
19828;SDS011;10075;50.924;4.396;2023-04-25T00:34:00;17.20;;;4.87;;
19828;SDS011;10075;50.924;4.396;2023-04-25T00:36:27;16.57;;;5.63;;
19828;SDS011;10075;50.924;4.396;2023-04-25T00:38:55;20.77;;;5.87;;
19828;SDS011;10075;50.924;4.396;2023-04-25T00:41:23;16.80;;;4.60;;
19828;SDS011;10075;50.924;4.396;2023-04-25T00:43:51;31.00;;;5.90;;
19828;SDS011;10075;50.924;4.396;2023-04-25T00:46:20;22.27;;;5.67;;
19828;SDS011;10075;50.924;4.396;2023-04-25T00:48:47;19.30;;;6.20;;
19828;SDS011;10075;50.924;4.396;2023-04-25T00:51:16;11.03;;;4.67;;
19828;SDS011;10075;50.924;4.396;2023-04-25T00:53:46;19.73;;;5.00;;
19828;SDS011;10075;50.924;4.396;2023-04-25T00:56:15;19.07;;;5.27;;
19828;SDS011;10075;50.924;4.396;2023-04-25T00:58:44;18.67;;;5.23;;
19828;SDS011;10075;50.924;4.396;2023-04-25T01:01:11;19.87;;;5.90;;
19828;SDS011;10075;50.924;4.396;2023-04-25T01:03:38;22.43;;;5.80;;
19828;SDS011;10075;50.924;4.396;2023-04-25T01:06:07;19.30;;;5.47;;
19828;SDS011;10075;50.924;4.396;2023-04-25T01:08:34;21.40;;;5.67;;
19828;SDS011;10075;50.924;4.396;2023-04-25T01:11:01;20.43;;;5.00;;
19828;SDS011;10075;50.924;4.396;2023-04-25T01:13:29;19.67;;;5.43;;
19828;SDS011;10075;50.924;4.396;2023-04-25T01:15:58;12.37;;;4.70;;
19828;SDS011;10075;50.924;4.396;2023-04-25T01:18:25;13.67;;;5.00;;
19828;SDS011;10075;50.924;4.396;2023-04-25T01:20:53;17.27;;;4.80;;
19828;SDS011;10075;50.924;4.396;2023-04-25T01:23:22;16.20;;;5.47;;
19828;SDS011;10075;50.924;4.396;2023-04-25T01:25:49;18.07;;;5.20;;
19828;SDS011;10075;50.924;4.396;2023-04-25T01:28:17;18.57;;;5.30;;
19828;SDS011;10075;50.924;4.396;2023-04-25T01:30:45;15.20;;;5.53;;
19828;SDS011;10075;50.924;4.396;2023-04-25T01:33:13;23.03;;;5.90;;
19828;SDS011;10075;50.924;4.396;2023-04-25T01:35:41;18.27;;;5.40;;
19828;SDS011;10075;50.924;4.396;2023-04-25T01:38:08;18.93;;;5.53;;
19828;SDS011;10075;50.924;4.396;2023-04-25T01:40:38;17.80;;;5.03;;
19828;SDS011;10075;50.924;4.396;2023-04-25T01:43:06;17.57;;;5.93;;
19828;SDS011;10075;50.924;4.396;2023-04-25T01:45:36;23.73;;;6.37;;
19828;SDS011;10075;50.924;4.396;2023-04-25T01:48:05;12.07;;;4.80;;
19828;SDS011;10075;50.924;4.396;2023-04-25T01:50:32;24.13;;;5.67;;
19828;SDS011;10075;50.924;4.396;2023-04-25T01:52:59;21.67;;;5.80;;
19828;SDS011;10075;50.924;4.396;2023-04-25T01:55:26;18.30;;;6.17;;
19828;SDS011;10075;50.924;4.396;2023-04-25T01:57:55;20.60;;;6.93;;
19828;SDS011;10075;50.924;4.396;2023-04-25T02:00:22;29.50;;;6.07;;
19828;SDS011;10075;50.924;4.396;2023-04-25T02:02:49;20.33;;;5.77;;
19828;SDS011;10075;50.924;4.396;2023-04-25T02:05:18;16.97;;;6.03;;
19828;SDS011;10075;50.924;4.396;2023-04-25T02:07:46;24.40;;;5.83;;
19828;SDS011;10075;50.924;4.396;2023-04-25T02:10:13;20.60;;;5.40;;
19828;SDS011;10075;50.924;4.396;2023-04-25T02:12:40;19.77;;;6.07;;
19828;SDS011;10075;50.924;4.396;2023-04-25T02:15:09;15.67;;;5.73;;
19828;SDS011;10075;50.924;4.396;2023-04-25T02:17:36;21.53;;;5.90;;
19828;SDS011;10075;50.924;4.396;2023-04-25T02:20:04;32.77;;;6.70;;
19828;SDS011;10075;50.924;4.396;2023-04-25T02:22:32;20.30;;;6.00;;
19828;SDS011;10075;50.924;4.396;2023-04-25T02:25:00;17.43;;;5.13;;
19828;SDS011;10075;50.924;4.396;2023-04-25T02:27:29;25.43;;;5.57;;
19828;SDS011;10075;50.924;4.396;2023-04-25T02:29:56;15.03;;;5.40;;
19828;SDS011;10075;50.924;4.396;2023-04-25T02:32:25;21.13;;;5.63;;
19828;SDS011;10075;50.924;4.396;2023-04-25T02:34:52;15.43;;;5.33;;
19828;SDS011;10075;50.924;4.396;2023-04-25T02:37:19;17.87;;;6.27;;
19828;SDS011;10075;50.924;4.396;2023-04-25T02:39:46;13.73;;;5.70;;
19828;SDS011;10075;50.924;4.396;2023-04-25T02:42:13;15.53;;;5.10;;
19828;SDS011;10075;50.924;4.396;2023-04-25T02:44:40;22.03;;;5.67;;
19828;SDS011;10075;50.924;4.396;2023-04-25T02:47:07;18.53;;;5.30;;
19828;SDS011;10075;50.924;4.396;2023-04-25T02:49:35;26.03;;;4.67;;
19828;SDS011;10075;50.924;4.396;2023-04-25T02:52:02;15.00;;;5.03;;
19828;SDS011;10075;50.924;4.396;2023-04-25T02:54:30;19.20;;;5.43;;
19828;SDS011;10075;50.924;4.396;2023-04-25T02:56:57;24.03;;;5.80;;
19828;SDS011;10075;50.924;4.396;2023-04-25T02:59:23;18.60;;;6.30;;
19828;SDS011;10075;50.924;4.396;2023-04-25T03:01:50;15.23;;;5.53;;
19828;SDS011;10075;50.924;4.396;2023-04-25T03:04:18;18.37;;;5.47;;
19828;SDS011;10075;50.924;4.396;2023-04-25T03:06:47;19.57;;;5.63;;
19828;SDS011;10075;50.924;4.396;2023-04-25T03:09:14;20.60;;;5.40;;
19828;SDS011;10075;50.924;4.396;2023-04-25T03:11:41;21.00;;;5.73;;
19828;SDS011;10075;50.924;4.396;2023-04-25T03:14:10;18.80;;;6.07;;
19828;SDS011;10075;50.924;4.396;2023-04-25T03:16:37;21.47;;;5.77;;
19828;SDS011;10075;50.924;4.396;2023-04-25T03:19:04;23.17;;;5.53;;
19828;SDS011;10075;50.924;4.396;2023-04-25T03:21:32;15.00;;;4.50;;
19828;SDS011;10075;50.924;4.396;2023-04-25T03:24:02;18.20;;;5.03;;
19828;SDS011;10075;50.924;4.396;2023-04-25T03:26:30;28.93;;;5.23;;
19828;SDS011;10075;50.924;4.396;2023-04-25T03:28:57;18.53;;;4.73;;
19828;SDS011;10075;50.924;4.396;2023-04-25T03:31:24;20.57;;;5.73;;
19828;SDS011;10075;50.924;4.396;2023-04-25T03:33:51;25.20;;;5.73;;
19828;SDS011;10075;50.924;4.396;2023-04-25T03:36:18;12.97;;;4.93;;
19828;SDS011;10075;50.924;4.396;2023-04-25T03:38:45;18.80;;;4.70;;
19828;SDS011;10075;50.924;4.396;2023-04-25T03:41:14;18.53;;;5.93;;
19828;SDS011;10075;50.924;4.396;2023-04-25T03:43:41;15.47;;;5.37;;
19828;SDS011;10075;50.924;4.396;2023-04-25T03:46:08;15.97;;;4.50;;
19828;SDS011;10075;50.924;4.396;2023-04-25T03:48:35;19.17;;;5.20;;
19828;SDS011;10075;50.924;4.396;2023-04-25T03:51:02;15.73;;;4.83;;
19828;SDS011;10075;50.924;4.396;2023-04-25T03:53:29;17.13;;;5.63;;
19828;SDS011;10075;50.924;4.396;2023-04-25T03:55:56;18.33;;;5.37;;
19828;SDS011;10075;50.924;4.396;2023-04-25T03:58:25;21.20;;;6.50;;
19828;SDS011;10075;50.924;4.396;2023-04-25T04:00:52;18.20;;;5.97;;
19828;SDS011;10075;50.924;4.396;2023-04-25T04:03:19;16.53;;;5.70;;
19828;SDS011;10075;50.924;4.396;2023-04-25T04:05:46;20.30;;;6.30;;
19828;SDS011;10075;50.924;4.396;2023-04-25T04:08:13;19.87;;;6.00;;
19828;SDS011;10075;50.924;4.396;2023-04-25T04:10:40;17.33;;;5.67;;
19828;SDS011;10075;50.924;4.396;2023-04-25T04:13:07;16.00;;;5.80;;
19828;SDS011;10075;50.924;4.396;2023-04-25T04:15:35;21.13;;;6.63;;
19828;SDS011;10075;50.924;4.396;2023-04-25T04:18:02;20.97;;;6.50;;
19828;SDS011;10075;50.924;4.396;2023-04-25T04:20:29;18.97;;;6.33;;
19828;SDS011;10075;50.924;4.396;2023-04-25T04:22:56;17.10;;;5.60;;
19828;SDS011;10075;50.924;4.396;2023-04-25T04:25:23;21.93;;;7.07;;
19828;SDS011;10075;50.924;4.396;2023-04-25T04:27:51;17.13;;;5.63;;
19828;SDS011;10075;50.924;4.396;2023-04-25T04:30:19;25.70;;;6.97;;
19828;SDS011;10075;50.924;4.396;2023-04-25T04:32:50;19.20;;;6.53;;
19828;SDS011;10075;50.924;4.396;2023-04-25T04:35:17;24.03;;;6.57;;
19828;SDS011;10075;50.924;4.396;2023-04-25T04:37:45;22.17;;;7.20;;
19828;SDS011;10075;50.924;4.396;2023-04-25T04:40:13;23.97;;;6.53;;
19828;SDS011;10075;50.924;4.396;2023-04-25T04:42:41;21.63;;;5.50;;
19828;SDS011;10075;50.924;4.396;2023-04-25T04:45:08;19.93;;;5.60;;
19828;SDS011;10075;50.924;4.396;2023-04-25T04:47:36;18.33;;;5.90;;
19828;SDS011;10075;50.924;4.396;2023-04-25T04:50:06;25.40;;;6.43;;
19828;SDS011;10075;50.924;4.396;2023-04-25T04:52:34;19.00;;;5.47;;
19828;SDS011;10075;50.924;4.396;2023-04-25T04:55:02;18.17;;;5.70;;
19828;SDS011;10075;50.924;4.396;2023-04-25T04:57:30;15.70;;;5.10;;
19828;SDS011;10075;50.924;4.396;2023-04-25T04:59:58;13.27;;;4.37;;
19828;SDS011;10075;50.924;4.396;2023-04-25T05:02:25;21.33;;;5.40;;
19828;SDS011;10075;50.924;4.396;2023-04-25T05:04:53;18.10;;;5.23;;
19828;SDS011;10075;50.924;4.396;2023-04-25T05:07:21;13.47;;;5.13;;
19828;SDS011;10075;50.924;4.396;2023-04-25T05:09:48;20.13;;;6.50;;
19828;SDS011;10075;50.924;4.396;2023-04-25T05:12:15;17.20;;;5.83;;
19828;SDS011;10075;50.924;4.396;2023-04-25T05:14:42;17.83;;;7.07;;
19828;SDS011;10075;50.924;4.396;2023-04-25T05:17:09;17.17;;;6.80;;
19828;SDS011;10075;50.924;4.396;2023-04-25T05:19:36;24.13;;;6.77;;
19828;SDS011;10075;50.924;4.396;2023-04-25T05:22:04;17.30;;;6.30;;
19828;SDS011;10075;50.924;4.396;2023-04-25T05:24:32;16.37;;;6.00;;
19828;SDS011;10075;50.924;4.396;2023-04-25T05:26:59;15.70;;;5.90;;
19828;SDS011;10075;50.924;4.396;2023-04-25T05:29:27;25.60;;;7.23;;
19828;SDS011;10075;50.924;4.396;2023-04-25T05:31:54;17.20;;;6.03;;
19828;SDS011;10075;50.924;4.396;2023-04-25T05:34:21;19.27;;;5.77;;
19828;SDS011;10075;50.924;4.396;2023-04-25T05:36:48;18.10;;;6.37;;
19828;SDS011;10075;50.924;4.396;2023-04-25T05:39:15;16.07;;;6.37;;
19828;SDS011;10075;50.924;4.396;2023-04-25T05:41:44;21.70;;;6.70;;
19828;SDS011;10075;50.924;4.396;2023-04-25T05:44:11;24.90;;;7.60;;
19828;SDS011;10075;50.924;4.396;2023-04-25T05:46:38;20.73;;;7.17;;
19828;SDS011;10075;50.924;4.396;2023-04-25T05:49:05;18.90;;;6.70;;
19828;SDS011;10075;50.924;4.396;2023-04-25T05:51:32;17.13;;;7.57;;
19828;SDS011;10075;50.924;4.396;2023-04-25T05:53:59;20.00;;;6.53;;
19828;SDS011;10075;50.924;4.396;2023-04-25T05:56:26;16.47;;;6.83;;
19828;SDS011;10075;50.924;4.396;2023-04-25T05:58:54;19.30;;;6.53;;
19828;SDS011;10075;50.924;4.396;2023-04-25T06:01:21;16.13;;;6.67;;
19828;SDS011;10075;50.924;4.396;2023-04-25T06:03:49;21.13;;;7.17;;
19828;SDS011;10075;50.924;4.396;2023-04-25T06:06:17;17.67;;;5.27;;
19828;SDS011;10075;50.924;4.396;2023-04-25T06:08:44;18.33;;;5.67;;
19828;SDS011;10075;50.924;4.396;2023-04-25T06:11:11;15.77;;;5.73;;
19828;SDS011;10075;50.924;4.396;2023-04-25T06:13:38;18.13;;;5.93;;
19828;SDS011;10075;50.924;4.396;2023-04-25T06:16:07;14.60;;;5.60;;
19828;SDS011;10075;50.924;4.396;2023-04-25T06:18:34;14.67;;;5.77;;
19828;SDS011;10075;50.924;4.396;2023-04-25T06:21:01;17.97;;;6.50;;
19828;SDS011;10075;50.924;4.396;2023-04-25T06:23:28;19.83;;;6.43;;
19828;SDS011;10075;50.924;4.396;2023-04-25T06:25:55;13.63;;;5.77;;
19828;SDS011;10075;50.924;4.396;2023-04-25T06:28:22;13.93;;;5.80;;
19828;SDS011;10075;50.924;4.396;2023-04-25T06:30:49;14.93;;;4.80;;
19828;SDS011;10075;50.924;4.396;2023-04-25T06:33:18;16.53;;;4.63;;
19828;SDS011;10075;50.924;4.396;2023-04-25T06:35:45;16.27;;;4.27;;
19828;SDS011;10075;50.924;4.396;2023-04-25T06:38:12;16.00;;;4.00;;
19828;SDS011;10075;50.924;4.396;2023-04-25T06:40:39;21.90;;;5.40;;
19828;SDS011;10075;50.924;4.396;2023-04-25T06:43:06;21.53;;;4.70;;
19828;SDS011;10075;50.924;4.396;2023-04-25T06:45:33;17.43;;;4.30;;
19828;SDS011;10075;50.924;4.396;2023-04-25T06:48:00;13.53;;;4.33;;
19828;SDS011;10075;50.924;4.396;2023-04-25T06:50:28;15.77;;;4.47;;
19828;SDS011;10075;50.924;4.396;2023-04-25T06:52:55;13.47;;;3.70;;
19828;SDS011;10075;50.924;4.396;2023-04-25T06:55:22;13.63;;;3.37;;
19828;SDS011;10075;50.924;4.396;2023-04-25T06:57:49;12.13;;;4.00;;
19828;SDS011;10075;50.924;4.396;2023-04-25T07:00:16;14.70;;;4.23;;
19828;SDS011;10075;50.924;4.396;2023-04-25T07:02:44;16.67;;;4.37;;
19828;SDS011;10075;50.924;4.396;2023-04-25T07:05:11;11.77;;;3.13;;
19828;SDS011;10075;50.924;4.396;2023-04-25T07:07:39;11.77;;;3.03;;
19828;SDS011;10075;50.924;4.396;2023-04-25T07:10:06;12.50;;;3.83;;
19828;SDS011;10075;50.924;4.396;2023-04-25T07:12:34;12.57;;;4.10;;
19828;SDS011;10075;50.924;4.396;2023-04-25T07:15:01;11.30;;;3.80;;
19828;SDS011;10075;50.924;4.396;2023-04-25T07:17:31;17.23;;;4.07;;
19828;SDS011;10075;50.924;4.396;2023-04-25T07:19:59;11.77;;;3.97;;
19828;SDS011;10075;50.924;4.396;2023-04-25T07:22:26;12.20;;;3.40;;
19828;SDS011;10075;50.924;4.396;2023-04-25T07:24:54;15.63;;;4.30;;
19828;SDS011;10075;50.924;4.396;2023-04-25T07:27:21;6.93;;;2.43;;
19828;SDS011;10075;50.924;4.396;2023-04-25T07:29:48;12.27;;;3.23;;
19828;SDS011;10075;50.924;4.396;2023-04-25T07:32:15;10.77;;;2.70;;
19828;SDS011;10075;50.924;4.396;2023-04-25T07:34:42;4.53;;;2.30;;
19828;SDS011;10075;50.924;4.396;2023-04-25T07:37:09;11.17;;;2.57;;
19828;SDS011;10075;50.924;4.396;2023-04-25T07:39:36;10.63;;;3.07;;
19828;SDS011;10075;50.924;4.396;2023-04-25T07:42:05;7.93;;;1.90;;
19828;SDS011;10075;50.924;4.396;2023-04-25T07:44:33;15.67;;;3.53;;
19828;SDS011;10075;50.924;4.396;2023-04-25T07:47:03;6.87;;;1.93;;
19828;SDS011;10075;50.924;4.396;2023-04-25T07:49:32;13.03;;;2.67;;
19828;SDS011;10075;50.924;4.396;2023-04-25T07:51:59;11.60;;;2.80;;
19828;SDS011;10075;50.924;4.396;2023-04-25T07:54:26;17.10;;;3.33;;
19828;SDS011;10075;50.924;4.396;2023-04-25T07:56:53;10.53;;;3.00;;
19828;SDS011;10075;50.924;4.396;2023-04-25T07:59:22;9.37;;;2.47;;
19828;SDS011;10075;50.924;4.396;2023-04-25T08:01:49;9.43;;;2.70;;
19828;SDS011;10075;50.924;4.396;2023-04-25T08:04:16;9.03;;;2.60;;
19828;SDS011;10075;50.924;4.396;2023-04-25T08:06:43;13.03;;;2.87;;
19828;SDS011;10075;50.924;4.396;2023-04-25T08:09:10;14.53;;;2.87;;
19828;SDS011;10075;50.924;4.396;2023-04-25T08:11:37;10.23;;;2.87;;
19828;SDS011;10075;50.924;4.396;2023-04-25T08:14:05;6.93;;;3.00;;
19828;SDS011;10075;50.924;4.396;2023-04-25T08:16:33;6.10;;;1.80;;
19828;SDS011;10075;50.924;4.396;2023-04-25T08:19:00;7.33;;;2.57;;
19828;SDS011;10075;50.924;4.396;2023-04-25T08:21:27;8.47;;;3.60;;
19828;SDS011;10075;50.924;4.396;2023-04-25T08:23:54;12.17;;;3.50;;
19828;SDS011;10075;50.924;4.396;2023-04-25T08:26:22;9.90;;;3.03;;
19828;SDS011;10075;50.924;4.396;2023-04-25T08:28:49;14.77;;;3.17;;
19828;SDS011;10075;50.924;4.396;2023-04-25T08:31:17;13.80;;;2.60;;
19828;SDS011;10075;50.924;4.396;2023-04-25T08:33:45;12.03;;;3.20;;
19828;SDS011;10075;50.924;4.396;2023-04-25T08:36:14;13.27;;;3.00;;
19828;SDS011;10075;50.924;4.396;2023-04-25T08:38:42;15.20;;;3.43;;
19828;SDS011;10075;50.924;4.396;2023-04-25T08:41:09;11.30;;;2.80;;
19828;SDS011;10075;50.924;4.396;2023-04-25T08:43:37;9.73;;;2.67;;
19828;SDS011;10075;50.924;4.396;2023-04-25T08:46:09;8.43;;;2.57;;
19828;SDS011;10075;50.924;4.396;2023-04-25T08:48:39;13.93;;;2.50;;
19828;SDS011;10075;50.924;4.396;2023-04-25T08:51:10;8.50;;;2.63;;
19828;SDS011;10075;50.924;4.396;2023-04-25T08:53:48;12.10;;;3.07;;
19828;SDS011;10075;50.924;4.396;2023-04-25T08:56:17;6.77;;;2.57;;
19828;SDS011;10075;50.924;4.396;2023-04-25T08:58:47;11.87;;;2.83;;
19828;SDS011;10075;50.924;4.396;2023-04-25T09:01:15;8.83;;;2.30;;
19828;SDS011;10075;50.924;4.396;2023-04-25T09:03:42;9.80;;;2.30;;
19828;SDS011;10075;50.924;4.396;2023-04-25T09:06:11;9.67;;;2.43;;
19828;SDS011;10075;50.924;4.396;2023-04-25T09:08:38;7.27;;;1.80;;
19828;SDS011;10075;50.924;4.396;2023-04-25T09:11:06;3.40;;;1.20;;
19828;SDS011;10075;50.924;4.396;2023-04-25T09:13:33;12.83;;;1.97;;
19828;SDS011;10075;50.924;4.396;2023-04-25T09:16:00;4.60;;;1.93;;
19828;SDS011;10075;50.924;4.396;2023-04-25T09:18:28;9.77;;;1.80;;
19828;SDS011;10075;50.924;4.396;2023-04-25T09:20:56;12.63;;;2.73;;
19828;SDS011;10075;50.924;4.396;2023-04-25T09:23:38;8.93;;;1.87;;
19828;SDS011;10075;50.924;4.396;2023-04-25T09:26:06;7.07;;;1.90;;
19828;SDS011;10075;50.924;4.396;2023-04-25T09:28:34;11.43;;;2.30;;
19828;SDS011;10075;50.924;4.396;2023-04-25T09:31:03;6.60;;;1.80;;
19828;SDS011;10075;50.924;4.396;2023-04-25T09:33:30;7.67;;;1.97;;
19828;SDS011;10075;50.924;4.396;2023-04-25T09:36:03;14.93;;;2.47;;
19828;SDS011;10075;50.924;4.396;2023-04-25T09:38:39;6.80;;;1.67;;
19828;SDS011;10075;50.924;4.396;2023-04-25T09:41:08;8.33;;;2.20;;
19828;SDS011;10075;50.924;4.396;2023-04-25T09:43:36;2.73;;;1.13;;
19828;SDS011;10075;50.924;4.396;2023-04-25T09:46:07;7.80;;;2.27;;
19828;SDS011;10075;50.924;4.396;2023-04-25T09:48:36;13.03;;;2.30;;
19828;SDS011;10075;50.924;4.396;2023-04-25T09:51:04;8.47;;;1.83;;
19828;SDS011;10075;50.924;4.396;2023-04-25T09:53:33;11.03;;;1.90;;
19828;SDS011;10075;50.924;4.396;2023-04-25T09:56:02;6.63;;;1.90;;
19828;SDS011;10075;50.924;4.396;2023-04-25T09:58:33;8.70;;;1.80;;
19828;SDS011;10075;50.924;4.396;2023-04-25T10:01:02;5.73;;;1.53;;
19828;SDS011;10075;50.924;4.396;2023-04-25T10:03:31;7.40;;;1.93;;
19828;SDS011;10075;50.924;4.396;2023-04-25T10:06:00;10.10;;;2.20;;
19828;SDS011;10075;50.924;4.396;2023-04-25T10:08:29;5.60;;;1.43;;
19828;SDS011;10075;50.924;4.396;2023-04-25T10:11:00;6.67;;;1.73;;
19828;SDS011;10075;50.924;4.396;2023-04-25T10:13:29;5.67;;;1.23;;
19828;SDS011;10075;50.924;4.396;2023-04-25T10:15:57;4.47;;;1.40;;
19828;SDS011;10075;50.924;4.396;2023-04-25T10:18:25;7.33;;;1.80;;
19828;SDS011;10075;50.924;4.396;2023-04-25T10:20:54;4.47;;;1.10;;
19828;SDS011;10075;50.924;4.396;2023-04-25T10:23:22;11.20;;;2.43;;
19828;SDS011;10075;50.924;4.396;2023-04-25T10:25:50;5.40;;;1.63;;
19828;SDS011;10075;50.924;4.396;2023-04-25T10:28:19;7.50;;;1.80;;
19828;SDS011;10075;50.924;4.396;2023-04-25T10:31:00;6.20;;;1.50;;
19828;SDS011;10075;50.924;4.396;2023-04-25T10:33:29;5.37;;;1.70;;
19828;SDS011;10075;50.924;4.396;2023-04-25T10:36:02;3.90;;;1.17;;
19828;SDS011;10075;50.924;4.396;2023-04-25T10:38:35;5.00;;;1.70;;
19828;SDS011;10075;50.924;4.396;2023-04-25T10:41:03;6.83;;;1.70;;
19828;SDS011;10075;50.924;4.396;2023-04-25T10:43:36;8.50;;;2.00;;
19828;SDS011;10075;50.924;4.396;2023-04-25T10:46:13;5.40;;;1.50;;
19828;SDS011;10075;50.924;4.396;2023-04-25T10:48:46;7.37;;;2.17;;
19828;SDS011;10075;50.924;4.396;2023-04-25T10:51:18;8.80;;;2.13;;
19828;SDS011;10075;50.924;4.396;2023-04-25T10:53:46;4.40;;;1.50;;
19828;SDS011;10075;50.924;4.396;2023-04-25T10:56:22;7.60;;;1.80;;
19828;SDS011;10075;50.924;4.396;2023-04-25T10:58:53;6.87;;;1.60;;
19828;SDS011;10075;50.924;4.396;2023-04-25T11:01:35;10.50;;;2.17;;
19828;SDS011;10075;50.924;4.396;2023-04-25T11:04:03;9.17;;;2.10;;
19828;SDS011;10075;50.924;4.396;2023-04-25T11:06:34;7.43;;;2.00;;
19828;SDS011;10075;50.924;4.396;2023-04-25T11:09:13;2.77;;;0.90;;
19828;SDS011;10075;50.924;4.396;2023-04-25T11:11:40;5.13;;;1.83;;
19828;SDS011;10075;50.924;4.396;2023-04-25T11:14:08;5.33;;;1.50;;
19828;SDS011;10075;50.924;4.396;2023-04-25T11:16:35;7.90;;;1.50;;
19828;SDS011;10075;50.924;4.396;2023-04-25T11:19:02;6.43;;;1.33;;
19828;SDS011;10075;50.924;4.396;2023-04-25T11:21:30;5.87;;;1.40;;
19828;SDS011;10075;50.924;4.396;2023-04-25T11:23:57;8.47;;;1.53;;
19828;SDS011;10075;50.924;4.396;2023-04-25T11:26:25;4.77;;;1.60;;
19828;SDS011;10075;50.924;4.396;2023-04-25T11:28:56;8.13;;;1.80;;
19828;SDS011;10075;50.924;4.396;2023-04-25T11:31:26;6.00;;;1.43;;
19828;SDS011;10075;50.924;4.396;2023-04-25T11:33:53;3.37;;;1.30;;
19828;SDS011;10075;50.924;4.396;2023-04-25T11:36:22;5.17;;;1.33;;
19828;SDS011;10075;50.924;4.396;2023-04-25T11:38:51;5.17;;;1.50;;
19828;SDS011;10075;50.924;4.396;2023-04-25T11:41:18;6.30;;;1.40;;
19828;SDS011;10075;50.924;4.396;2023-04-25T11:43:45;2.70;;;0.87;;
19828;SDS011;10075;50.924;4.396;2023-04-25T11:46:12;9.13;;;1.30;;
19828;SDS011;10075;50.924;4.396;2023-04-25T11:48:41;4.30;;;1.30;;
19828;SDS011;10075;50.924;4.396;2023-04-25T11:51:09;6.60;;;1.40;;
19828;SDS011;10075;50.924;4.396;2023-04-25T11:53:36;3.70;;;1.40;;
19828;SDS011;10075;50.924;4.396;2023-04-25T11:56:09;5.05;;;1.60;;
19828;SDS011;10075;50.924;4.396;2023-04-25T12:01:28;6.55;;;1.88;;
19828;SDS011;10075;50.924;4.396;2023-04-25T12:03:57;4.77;;;1.27;;
19828;SDS011;10075;50.924;4.396;2023-04-25T12:06:36;5.17;;;1.60;;
19828;SDS011;10075;50.924;4.396;2023-04-25T12:09:06;5.50;;;1.27;;
19828;SDS011;10075;50.924;4.396;2023-04-25T12:11:40;4.47;;;0.90;;
19828;SDS011;10075;50.924;4.396;2023-04-25T12:14:08;5.83;;;1.27;;
19828;SDS011;10075;50.924;4.396;2023-04-25T12:16:42;3.27;;;1.03;;
19828;SDS011;10075;50.924;4.396;2023-04-25T12:19:13;3.93;;;0.93;;
19828;SDS011;10075;50.924;4.396;2023-04-25T12:21:40;8.57;;;1.30;;
19828;SDS011;10075;50.924;4.396;2023-04-25T12:24:11;3.47;;;0.97;;
19828;SDS011;10075;50.924;4.396;2023-04-25T12:26:45;3.90;;;1.00;;
19828;SDS011;10075;50.924;4.396;2023-04-25T12:29:17;3.73;;;1.10;;
19828;SDS011;10075;50.924;4.396;2023-04-25T12:31:45;2.75;;;1.00;;
19828;SDS011;10075;50.924;4.396;2023-04-25T12:34:13;5.63;;;0.98;;
19828;SDS011;10075;50.924;4.396;2023-04-25T12:36:41;2.95;;;1.08;;
19828;SDS011;10075;50.924;4.396;2023-04-25T12:39:08;7.03;;;1.20;;
19828;SDS011;10075;50.924;4.396;2023-04-25T12:41:35;6.57;;;1.27;;
19828;SDS011;10075;50.924;4.396;2023-04-25T12:44:02;6.43;;;1.13;;
19828;SDS011;10075;50.924;4.396;2023-04-25T12:46:30;3.78;;;0.90;;
19828;SDS011;10075;50.924;4.396;2023-04-25T12:48:56;7.70;;;1.53;;
19828;SDS011;10075;50.924;4.396;2023-04-25T12:51:25;5.40;;;1.17;;
19828;SDS011;10075;50.924;4.396;2023-04-25T12:53:52;6.03;;;1.30;;
19828;SDS011;10075;50.924;4.396;2023-04-25T12:56:19;3.77;;;1.40;;
19828;SDS011;10075;50.924;4.396;2023-04-25T12:58:46;9.17;;;1.50;;
19828;SDS011;10075;50.924;4.396;2023-04-25T13:01:14;6.77;;;1.60;;
19828;SDS011;10075;50.924;4.396;2023-04-25T13:03:41;10.17;;;1.80;;
19828;SDS011;10075;50.924;4.396;2023-04-25T13:06:08;7.93;;;1.42;;
19828;SDS011;10075;50.924;4.396;2023-04-25T13:08:36;4.00;;;1.52;;
19828;SDS011;10075;50.924;4.396;2023-04-25T13:11:03;9.80;;;1.97;;
19828;SDS011;10075;50.924;4.396;2023-04-25T13:13:31;5.80;;;1.60;;
19828;SDS011;10075;50.924;4.396;2023-04-25T13:15:59;2.73;;;1.03;;
19828;SDS011;10075;50.924;4.396;2023-04-25T13:18:27;6.97;;;1.50;;
19828;SDS011;10075;50.924;4.396;2023-04-25T13:20:54;5.47;;;1.08;;
19828;SDS011;10075;50.924;4.396;2023-04-25T13:23:21;4.17;;;1.27;;
19828;SDS011;10075;50.924;4.396;2023-04-25T13:25:50;8.82;;;1.55;;
19828;SDS011;10075;50.924;4.396;2023-04-25T13:28:17;4.93;;;1.50;;
19828;SDS011;10075;50.924;4.396;2023-04-25T13:30:44;6.30;;;1.27;;
19828;SDS011;10075;50.924;4.396;2023-04-25T13:33:13;4.43;;;1.20;;
19828;SDS011;10075;50.924;4.396;2023-04-25T13:35:40;3.63;;;1.50;;
19828;SDS011;10075;50.924;4.396;2023-04-25T13:38:08;5.87;;;1.37;;
19828;SDS011;10075;50.924;4.396;2023-04-25T13:40:35;4.33;;;1.30;;
19828;SDS011;10075;50.924;4.396;2023-04-25T13:43:03;4.18;;;1.40;;
19828;SDS011;10075;50.924;4.396;2023-04-25T13:45:31;5.63;;;1.00;;
19828;SDS011;10075;50.924;4.396;2023-04-25T13:47:58;3.85;;;0.63;;
19828;SDS011;10075;50.924;4.396;2023-04-25T13:50:25;5.75;;;1.38;;
19828;SDS011;10075;50.924;4.396;2023-04-25T13:52:52;4.78;;;1.30;;
19828;SDS011;10075;50.924;4.396;2023-04-25T13:55:19;2.45;;;1.10;;
19828;SDS011;10075;50.924;4.396;2023-04-25T13:57:46;6.35;;;1.02;;
19828;SDS011;10075;50.924;4.396;2023-04-25T14:00:15;2.97;;;0.60;;
19828;SDS011;10075;50.924;4.396;2023-04-25T14:02:43;4.43;;;0.90;;
19828;SDS011;10075;50.924;4.396;2023-04-25T14:05:10;3.07;;;0.73;;
19828;SDS011;10075;50.924;4.396;2023-04-25T14:07:38;4.03;;;1.20;;
19828;SDS011;10075;50.924;4.396;2023-04-25T14:10:05;4.67;;;0.97;;
19828;SDS011;10075;50.924;4.396;2023-04-25T14:12:33;1.73;;;0.90;;
19828;SDS011;10075;50.924;4.396;2023-04-25T14:15:00;1.90;;;1.00;;
19828;SDS011;10075;50.924;4.396;2023-04-25T14:17:28;3.27;;;1.03;;
19828;SDS011;10075;50.924;4.396;2023-04-25T14:19:55;4.27;;;1.00;;
19828;SDS011;10075;50.924;4.396;2023-04-25T14:22:22;6.00;;;2.10;;
19828;SDS011;10075;50.924;4.396;2023-04-25T14:24:50;7.83;;;2.00;;
19828;SDS011;10075;50.924;4.396;2023-04-25T14:27:17;7.63;;;1.50;;
19828;SDS011;10075;50.924;4.396;2023-04-25T14:29:45;2.83;;;1.23;;
19828;SDS011;10075;50.924;4.396;2023-04-25T14:32:12;3.53;;;1.25;;
19828;SDS011;10075;50.924;4.396;2023-04-25T14:34:41;6.03;;;1.53;;
19828;SDS011;10075;50.924;4.396;2023-04-25T14:37:08;5.32;;;1.48;;
19828;SDS011;10075;50.924;4.396;2023-04-25T14:39:35;3.75;;;1.00;;
19828;SDS011;10075;50.924;4.396;2023-04-25T14:42:03;2.80;;;0.95;;
19828;SDS011;10075;50.924;4.396;2023-04-25T14:44:30;7.05;;;1.35;;
19828;SDS011;10075;50.924;4.396;2023-04-25T14:46:57;4.63;;;0.90;;
19828;SDS011;10075;50.924;4.396;2023-04-25T14:49:24;5.85;;;1.00;;